sensor_id;sensor_type;location;lat;lon;timestamp;temperature;humidity
67354;SHT30;54238;52.278;21.056;2022-11-21T00:03:51;-0.06;72.25
67354;SHT30;54238;52.278;21.056;2022-11-21T00:06:23;0.07;72.02
67354;SHT30;54238;52.278;21.056;2022-11-21T00:08:55;0.14;71.74
67354;SHT30;54238;52.278;21.056;2022-11-21T00:11:25;0.12;71.61
67354;SHT30;54238;52.278;21.056;2022-11-21T00:13:59;0.05;71.62
67354;SHT30;54238;52.278;21.056;2022-11-21T00:16:28;-0.02;71.75
67354;SHT30;54238;52.278;21.056;2022-11-21T00:19:00;-0.10;71.83
67354;SHT30;54238;52.278;21.056;2022-11-21T00:21:29;-0.18;71.96
67354;SHT30;54238;52.278;21.056;2022-11-21T00:23:56;-0.26;72.13
67354;SHT30;54238;52.278;21.056;2022-11-21T00:26:25;-0.35;72.25
67354;SHT30;54238;52.278;21.056;2022-11-21T00:28:52;-0.34;72.35
67354;SHT30;54238;52.278;21.056;2022-11-21T00:31:20;-0.24;72.28
67354;SHT30;54238;52.278;21.056;2022-11-21T00:33:49;-0.12;72.10
67354;SHT30;54238;52.278;21.056;2022-11-21T00:36:18;0.01;71.86
67354;SHT30;54238;52.278;21.056;2022-11-21T00:38:48;0.16;71.65
67354;SHT30;54238;52.278;21.056;2022-11-21T00:41:15;0.25;71.36
67354;SHT30;54238;52.278;21.056;2022-11-21T00:43:52;0.27;71.22
67354;SHT30;54238;52.278;21.056;2022-11-21T00:46:19;0.26;71.19
67354;SHT30;54238;52.278;21.056;2022-11-21T00:51:26;0.20;71.11
67354;SHT30;54238;52.278;21.056;2022-11-21T00:53:56;0.16;71.12
67354;SHT30;54238;52.278;21.056;2022-11-21T00:56:55;0.08;71.22
67354;SHT30;54238;52.278;21.056;2022-11-21T00:59:24;0.06;71.36
67354;SHT30;54238;52.278;21.056;2022-11-21T01:01:51;0.03;71.38
67354;SHT30;54238;52.278;21.056;2022-11-21T01:04:29;-0.01;71.45
67354;SHT30;54238;52.278;21.056;2022-11-21T01:07:02;-0.07;71.62
67354;SHT30;54238;52.278;21.056;2022-11-21T01:12:27;0.05;71.51
67354;SHT30;54238;52.278;21.056;2022-11-21T01:14:54;0.18;71.30
67354;SHT30;54238;52.278;21.056;2022-11-21T01:17:24;0.30;71.07
67354;SHT30;54238;52.278;21.056;2022-11-21T01:19:53;0.43;70.78
67354;SHT30;54238;52.278;21.056;2022-11-21T01:22:25;0.55;70.47
67354;SHT30;54238;52.278;21.056;2022-11-21T01:24:52;0.58;70.21
67354;SHT30;54238;52.278;21.056;2022-11-21T01:27:21;0.50;70.11
67354;SHT30;54238;52.278;21.056;2022-11-21T01:29:52;0.41;70.19
67354;SHT30;54238;52.278;21.056;2022-11-21T01:32:19;0.31;70.28
67354;SHT30;54238;52.278;21.056;2022-11-21T01:34:46;0.19;70.37
67354;SHT30;54238;52.278;21.056;2022-11-21T01:37:13;0.04;70.59
67354;SHT30;54238;52.278;21.056;2022-11-21T01:39:40;-0.07;70.89
67354;SHT30;54238;52.278;21.056;2022-11-21T01:42:10;-0.19;71.07
67354;SHT30;54238;52.278;21.056;2022-11-21T01:44:47;-0.23;71.25
67354;SHT30;54238;52.278;21.056;2022-11-21T01:47:20;-0.17;71.23
67354;SHT30;54238;52.278;21.056;2022-11-21T01:49:51;-0.06;71.10
67354;SHT30;54238;52.278;21.056;2022-11-21T01:57:34;0.22;70.60
67354;SHT30;54238;52.278;21.056;2022-11-21T02:00:17;0.22;70.49
67354;SHT30;54238;52.278;21.056;2022-11-21T02:03:01;0.17;70.50
67354;SHT30;54238;52.278;21.056;2022-11-21T02:05:37;0.11;70.52
67354;SHT30;54238;52.278;21.056;2022-11-21T02:08:17;0.01;70.59
67354;SHT30;54238;52.278;21.056;2022-11-21T02:10:51;-0.12;70.75
67354;SHT30;54238;52.278;21.056;2022-11-21T02:13:26;-0.22;70.91
67354;SHT30;54238;52.278;21.056;2022-11-21T02:15:56;-0.32;71.07
67354;SHT30;54238;52.278;21.056;2022-11-21T02:18:26;-0.42;71.26
67354;SHT30;54238;52.278;21.056;2022-11-21T02:20:56;-0.47;71.40
67354;SHT30;54238;52.278;21.056;2022-11-21T02:23:44;-0.41;71.46
67354;SHT30;54238;52.278;21.056;2022-11-21T02:26:25;-0.25;71.34
67354;SHT30;54238;52.278;21.056;2022-11-21T02:28:52;-0.10;71.05
67354;SHT30;54238;52.278;21.056;2022-11-21T02:31:25;0.03;70.86
67354;SHT30;54238;52.278;21.056;2022-11-21T02:33:56;0.08;70.65
67354;SHT30;54238;52.278;21.056;2022-11-21T02:36:36;0.07;70.57
67354;SHT30;54238;52.278;21.056;2022-11-21T02:39:15;-0.00;70.57
67354;SHT30;54238;52.278;21.056;2022-11-21T02:42:08;-0.08;70.63
67354;SHT30;54238;52.278;21.056;2022-11-21T02:47:36;-0.31;70.91
67354;SHT30;54238;52.278;21.056;2022-11-21T02:50:21;-0.43;71.13
67354;SHT30;54238;52.278;21.056;2022-11-21T02:52:53;-0.56;71.42
67354;SHT30;54238;52.278;21.056;2022-11-21T02:55:28;-0.68;71.72
67354;SHT30;54238;52.278;21.056;2022-11-21T02:57:56;-0.80;72.06
67354;SHT30;54238;52.278;21.056;2022-11-21T03:00:26;-0.80;72.20
67354;SHT30;54238;52.278;21.056;2022-11-21T03:02:56;-0.70;72.12
67354;SHT30;54238;52.278;21.056;2022-11-21T03:05:23;-0.56;71.89
67354;SHT30;54238;52.278;21.056;2022-11-21T03:07:52;-0.41;71.71
67354;SHT30;54238;52.278;21.056;2022-11-21T03:10:21;-0.26;71.37
67354;SHT30;54238;52.278;21.056;2022-11-21T03:12:51;-0.20;71.17
67354;SHT30;54238;52.278;21.056;2022-11-21T03:15:29;-0.22;71.10
67354;SHT30;54238;52.278;21.056;2022-11-21T03:18:00;-0.26;71.02
67354;SHT30;54238;52.278;21.056;2022-11-21T03:20:33;-0.35;71.10
67354;SHT30;54238;52.278;21.056;2022-11-21T03:23:03;-0.42;71.14
67354;SHT30;54238;52.278;21.056;2022-11-21T03:25:30;-0.51;71.23
67354;SHT30;54238;52.278;21.056;2022-11-21T03:27:57;-0.60;71.38
67354;SHT30;54238;52.278;21.056;2022-11-21T03:30:24;-0.69;71.50
67354;SHT30;54238;52.278;21.056;2022-11-21T03:33:00;-0.78;71.72
67354;SHT30;54238;52.278;21.056;2022-11-21T03:35:27;-0.79;71.90
67354;SHT30;54238;52.278;21.056;2022-11-21T03:37:56;-0.73;71.83
67354;SHT30;54238;52.278;21.056;2022-11-21T03:40:27;-0.66;71.71
67354;SHT30;54238;52.278;21.056;2022-11-21T03:42:59;-0.56;71.57
67354;SHT30;54238;52.278;21.056;2022-11-21T03:45:31;-0.43;71.39
67354;SHT30;54238;52.278;21.056;2022-11-21T03:48:04;-0.39;71.20
67354;SHT30;54238;52.278;21.056;2022-11-21T03:50:36;-0.41;71.15
67354;SHT30;54238;52.278;21.056;2022-11-21T03:53:05;-0.49;71.15
67354;SHT30;54238;52.278;21.056;2022-11-21T03:55:34;-0.57;71.22
67354;SHT30;54238;52.278;21.056;2022-11-21T03:58:06;-0.65;71.32
67354;SHT30;54238;52.278;21.056;2022-11-21T04:00:35;-0.73;71.47
67354;SHT30;54238;52.278;21.056;2022-11-21T04:03:02;-0.81;71.64
67354;SHT30;54238;52.278;21.056;2022-11-21T04:05:29;-0.88;71.71
67354;SHT30;54238;52.278;21.056;2022-11-21T04:08:01;-0.94;71.80
67354;SHT30;54238;52.278;21.056;2022-11-21T04:10:30;-0.96;71.80
67354;SHT30;54238;52.278;21.056;2022-11-21T04:12:59;-0.95;71.83
67354;SHT30;54238;52.278;21.056;2022-11-21T04:15:29;-0.92;71.68
67354;SHT30;54238;52.278;21.056;2022-11-21T04:18:01;-0.86;71.46
67354;SHT30;54238;52.278;21.056;2022-11-21T04:20:28;-0.80;71.07
67354;SHT30;54238;52.278;21.056;2022-11-21T04:22:59;-0.71;71.00
67354;SHT30;54238;52.278;21.056;2022-11-21T04:25:31;-0.59;71.03
67354;SHT30;54238;52.278;21.056;2022-11-21T04:28:01;-0.53;70.97
67354;SHT30;54238;52.278;21.056;2022-11-21T04:30:36;-0.55;70.89
67354;SHT30;54238;52.278;21.056;2022-11-21T04:33:03;-0.62;70.95
67354;SHT30;54238;52.278;21.056;2022-11-21T04:35:30;-0.69;71.09
67354;SHT30;54238;52.278;21.056;2022-11-21T04:38:31;-0.82;71.08
67354;SHT30;54238;52.278;21.056;2022-11-21T04:41:03;-0.89;71.35
67354;SHT30;54238;52.278;21.056;2022-11-21T04:43:32;-0.96;71.49
67354;SHT30;54238;52.278;21.056;2022-11-21T04:46:04;-1.04;71.67
67354;SHT30;54238;52.278;21.056;2022-11-21T04:48:32;-1.11;71.80
67354;SHT30;54238;52.278;21.056;2022-11-21T04:53:39;-1.13;71.93
67354;SHT30;54238;52.278;21.056;2022-11-21T04:56:09;-1.11;71.95
67354;SHT30;54238;52.278;21.056;2022-11-21T04:58:46;-1.07;71.88
67354;SHT30;54238;52.278;21.056;2022-11-21T05:01:17;-1.07;71.86
67354;SHT30;54238;52.278;21.056;2022-11-21T05:03:48;-1.00;71.69
67354;SHT30;54238;52.278;21.056;2022-11-21T05:06:22;-0.91;71.50
67354;SHT30;54238;52.278;21.056;2022-11-21T05:08:51;-0.85;71.36
67354;SHT30;54238;52.278;21.056;2022-11-21T05:11:21;-0.83;71.28
67354;SHT30;54238;52.278;21.056;2022-11-21T05:14:14;-0.87;71.23
67354;SHT30;54238;52.278;21.056;2022-11-21T05:16:41;-0.95;71.28
67354;SHT30;54238;52.278;21.056;2022-11-21T05:19:42;-1.06;71.34
67354;SHT30;54238;52.278;21.056;2022-11-21T05:22:11;-1.16;71.57
67354;SHT30;54238;52.278;21.056;2022-11-21T05:24:38;-1.24;71.70
67354;SHT30;54238;52.278;21.056;2022-11-21T05:27:05;-1.32;71.80
67354;SHT30;54238;52.278;21.056;2022-11-21T05:29:32;-1.36;71.92
67354;SHT30;54238;52.278;21.056;2022-11-21T05:32:01;-1.34;72.03
67354;SHT30;54238;52.278;21.056;2022-11-21T05:34:30;-1.26;71.97
67354;SHT30;54238;52.278;21.056;2022-11-21T05:36:57;-1.16;71.89
67354;SHT30;54238;52.278;21.056;2022-11-21T05:39:27;-1.05;71.75
67354;SHT30;54238;52.278;21.056;2022-11-21T05:41:58;-0.99;71.57
67354;SHT30;54238;52.278;21.056;2022-11-21T05:44:25;-1.00;71.50
67354;SHT30;54238;52.278;21.056;2022-11-21T05:46:57;-1.08;71.58
67354;SHT30;54238;52.278;21.056;2022-11-21T05:49:24;-1.19;71.69
67354;SHT30;54238;52.278;21.056;2022-11-21T05:51:50;-1.27;71.81
67354;SHT30;54238;52.278;21.056;2022-11-21T05:54:17;-1.35;71.92
67354;SHT30;54238;52.278;21.056;2022-11-21T05:56:49;-1.44;72.07
67354;SHT30;54238;52.278;21.056;2022-11-21T05:59:18;-1.52;72.32
67354;SHT30;54238;52.278;21.056;2022-11-21T06:01:47;-1.59;72.56
67354;SHT30;54238;52.278;21.056;2022-11-21T06:04:35;-1.60;72.74
67354;SHT30;54238;52.278;21.056;2022-11-21T06:07:02;-1.51;72.71
67354;SHT30;54238;52.278;21.056;2022-11-21T06:09:36;-1.41;72.56
67354;SHT30;54238;52.278;21.056;2022-11-21T06:12:08;-1.28;72.41
67354;SHT30;54238;52.278;21.056;2022-11-21T06:17:30;-1.21;72.10
67354;SHT30;54238;52.278;21.056;2022-11-21T06:20:00;-1.32;72.13
67354;SHT30;54238;52.278;21.056;2022-11-21T06:22:34;-1.42;72.36
67354;SHT30;54238;52.278;21.056;2022-11-21T06:25:03;-1.53;72.57
67354;SHT30;54238;52.278;21.056;2022-11-21T06:27:34;-1.62;72.78
67354;SHT30;54238;52.278;21.056;2022-11-21T06:30:02;-1.68;72.90
67354;SHT30;54238;52.278;21.056;2022-11-21T06:32:35;-1.74;73.11
67354;SHT30;54238;52.278;21.056;2022-11-21T06:35:03;-1.78;73.29
67354;SHT30;54238;52.278;21.056;2022-11-21T06:37:33;-1.80;73.35
67354;SHT30;54238;52.278;21.056;2022-11-21T06:40:03;-1.77;73.43
67354;SHT30;54238;52.278;21.056;2022-11-21T06:42:33;-1.63;73.39
67354;SHT30;54238;52.278;21.056;2022-11-21T06:45:00;-1.45;73.21
67354;SHT30;54238;52.278;21.056;2022-11-21T06:47:29;-1.27;72.94
67354;SHT30;54238;52.278;21.056;2022-11-21T06:50:00;-1.12;72.61
67354;SHT30;54238;52.278;21.056;2022-11-21T06:52:27;-1.04;72.43
67354;SHT30;54238;52.278;21.056;2022-11-21T06:54:53;-0.99;72.46
67354;SHT30;54238;52.278;21.056;2022-11-21T06:57:23;-0.96;72.39
67354;SHT30;54238;52.278;21.056;2022-11-21T06:59:52;-0.96;72.34
67354;SHT30;54238;52.278;21.056;2022-11-21T07:02:22;-0.99;72.28
67354;SHT30;54238;52.278;21.056;2022-11-21T07:04:49;-1.02;72.32
67354;SHT30;54238;52.278;21.056;2022-11-21T07:07:18;-1.04;72.36
67354;SHT30;54238;52.278;21.056;2022-11-21T07:09:52;-1.06;72.38
67354;SHT30;54238;52.278;21.056;2022-11-21T07:12:19;-1.10;72.38
67354;SHT30;54238;52.278;21.056;2022-11-21T07:15:10;-1.06;72.40
67354;SHT30;54238;52.278;21.056;2022-11-21T07:17:40;-0.93;72.33
67354;SHT30;54238;52.278;21.056;2022-11-21T07:20:09;-0.73;72.12
67354;SHT30;54238;52.278;21.056;2022-11-21T07:22:39;-0.53;71.77
67354;SHT30;54238;52.278;21.056;2022-11-21T07:25:09;-0.41;71.45
67354;SHT30;54238;52.278;21.056;2022-11-21T07:27:38;-0.34;71.22
67354;SHT30;54238;52.278;21.056;2022-11-21T07:30:08;-0.34;70.94
67354;SHT30;54238;52.278;21.056;2022-11-21T07:32:41;-0.37;70.91
67354;SHT30;54238;52.278;21.056;2022-11-21T07:35:08;-0.43;70.85
67354;SHT30;54238;52.278;21.056;2022-11-21T07:37:41;-0.49;70.90
67354;SHT30;54238;52.278;21.056;2022-11-21T07:40:08;-0.54;70.99
67354;SHT30;54238;52.278;21.056;2022-11-21T07:42:40;-0.57;71.06
67354;SHT30;54238;52.278;21.056;2022-11-21T07:45:12;-0.61;71.14
67354;SHT30;54238;52.278;21.056;2022-11-21T07:47:45;-0.60;71.23
67354;SHT30;54238;52.278;21.056;2022-11-21T07:50:15;-0.61;71.13
67354;SHT30;54238;52.278;21.056;2022-11-21T07:52:47;-0.62;71.29
67354;SHT30;54238;52.278;21.056;2022-11-21T07:55:16;-0.63;71.39
67354;SHT30;54238;52.278;21.056;2022-11-21T07:57:45;-0.54;71.43
67354;SHT30;54238;52.278;21.056;2022-11-21T08:00:15;-0.36;71.30
67354;SHT30;54238;52.278;21.056;2022-11-21T08:02:47;-0.14;71.01
67354;SHT30;54238;52.278;21.056;2022-11-21T08:05:21;0.07;70.77
67354;SHT30;54238;52.278;21.056;2022-11-21T08:07:53;0.29;70.42
67354;SHT30;54238;52.278;21.056;2022-11-21T08:10:25;0.42;70.00
67354;SHT30;54238;52.278;21.056;2022-11-21T08:12:52;0.48;69.72
67354;SHT30;54238;52.278;21.056;2022-11-21T08:15:23;0.54;69.69
67354;SHT30;54238;52.278;21.056;2022-11-21T08:17:52;0.61;69.43
67354;SHT30;54238;52.278;21.056;2022-11-21T08:20:19;0.65;69.25
67354;SHT30;54238;52.278;21.056;2022-11-21T08:22:46;0.73;69.30
67354;SHT30;54238;52.278;21.056;2022-11-21T08:25:16;0.86;69.29
67354;SHT30;54238;52.278;21.056;2022-11-21T08:27:48;0.97;68.67
67354;SHT30;54238;52.278;21.056;2022-11-21T08:30:18;1.03;68.14
67354;SHT30;54238;52.278;21.056;2022-11-21T08:32:47;1.16;68.42
67354;SHT30;54238;52.278;21.056;2022-11-21T08:35:17;1.34;68.13
67354;SHT30;54238;52.278;21.056;2022-11-21T08:37:44;1.59;67.61
67354;SHT30;54238;52.278;21.056;2022-11-21T08:40:14;1.81;66.90
67354;SHT30;54238;52.278;21.056;2022-11-21T08:42:41;2.03;66.65
67354;SHT30;54238;52.278;21.056;2022-11-21T08:45:10;2.31;66.01
67354;SHT30;54238;52.278;21.056;2022-11-21T08:47:39;2.43;65.27
67354;SHT30;54238;52.278;21.056;2022-11-21T08:50:07;2.57;65.01
67354;SHT30;54238;52.278;21.056;2022-11-21T08:52:34;2.92;64.38
67354;SHT30;54238;52.278;21.056;2022-11-21T08:55:01;3.24;63.56
67354;SHT30;54238;52.278;21.056;2022-11-21T08:57:31;3.38;62.96
67354;SHT30;54238;52.278;21.056;2022-11-21T09:00:09;3.62;62.65
67354;SHT30;54238;52.278;21.056;2022-11-21T09:02:41;3.98;61.81
67354;SHT30;54238;52.278;21.056;2022-11-21T09:05:08;4.33;61.03
67354;SHT30;54238;52.278;21.056;2022-11-21T09:07:36;4.57;60.21
67354;SHT30;54238;52.278;21.056;2022-11-21T09:10:06;4.83;59.43
67354;SHT30;54238;52.278;21.056;2022-11-21T09:12:34;4.97;58.51
67354;SHT30;54238;52.278;21.056;2022-11-21T09:15:02;5.21;58.14
67354;SHT30;54238;52.278;21.056;2022-11-21T09:17:47;5.78;57.50
67354;SHT30;54238;52.278;21.056;2022-11-21T09:20:40;6.54;55.71
67354;SHT30;54238;52.278;21.056;2022-11-21T09:23:13;7.13;54.73
67354;SHT30;54238;52.278;21.056;2022-11-21T09:25:42;7.59;53.31
67354;SHT30;54238;52.278;21.056;2022-11-21T09:28:10;8.05;52.28
67354;SHT30;54238;52.278;21.056;2022-11-21T09:30:41;8.28;51.30
67354;SHT30;54238;52.278;21.056;2022-11-21T09:33:09;8.61;49.96
67354;SHT30;54238;52.278;21.056;2022-11-21T09:35:40;9.16;49.05
67354;SHT30;54238;52.278;21.056;2022-11-21T09:38:08;9.62;47.89
67354;SHT30;54238;52.278;21.056;2022-11-21T09:40:39;9.23;46.93
67354;SHT30;54238;52.278;21.056;2022-11-21T09:46:29;8.42;48.00
67354;SHT30;54238;52.278;21.056;2022-11-21T09:49:08;8.46;47.86
67354;SHT30;54238;52.278;21.056;2022-11-21T09:51:42;8.87;47.22
67354;SHT30;54238;52.278;21.056;2022-11-21T09:56:47;8.77;46.50
67354;SHT30;54238;52.278;21.056;2022-11-21T09:59:26;8.92;46.61
67354;SHT30;54238;52.278;21.056;2022-11-21T10:02:10;9.14;45.97
67354;SHT30;54238;52.278;21.056;2022-11-21T10:04:49;9.26;45.27
67354;SHT30;54238;52.278;21.056;2022-11-21T10:07:28;9.19;45.75
67354;SHT30;54238;52.278;21.056;2022-11-21T10:27:20;11.66;41.47
67354;SHT30;54238;52.278;21.056;2022-11-21T10:30:00;12.05;40.25
67354;SHT30;54238;52.278;21.056;2022-11-21T10:32:38;12.39;39.37
67354;SHT30;54238;52.278;21.056;2022-11-21T10:35:14;12.80;39.37
67354;SHT30;54238;52.278;21.056;2022-11-21T10:38:18;13.27;38.10
67354;SHT30;54238;52.278;21.056;2022-11-21T10:40:54;13.47;37.48
67354;SHT30;54238;52.278;21.056;2022-11-21T10:46:56;14.24;36.18
67354;SHT30;54238;52.278;21.056;2022-11-21T10:49:31;14.37;35.33
67354;SHT30;54238;52.278;21.056;2022-11-21T10:57:43;14.84;34.43
67354;SHT30;54238;52.278;21.056;2022-11-21T11:05:31;14.94;33.39
67354;SHT30;54238;52.278;21.056;2022-11-21T11:08:10;14.91;33.66
67354;SHT30;54238;52.278;21.056;2022-11-21T11:10:45;15.03;32.94
67354;SHT30;54238;52.278;21.056;2022-11-21T11:13:31;15.17;33.43
67354;SHT30;54238;52.278;21.056;2022-11-21T11:16:18;15.03;33.48
67354;SHT30;54238;52.278;21.056;2022-11-21T11:18:53;14.92;33.65
67354;SHT30;54238;52.278;21.056;2022-11-21T11:26:59;15.32;33.12
67354;SHT30;54238;52.278;21.056;2022-11-21T11:29:28;15.53;32.74
67354;SHT30;54238;52.278;21.056;2022-11-21T11:32:01;15.13;33.30
67354;SHT30;54238;52.278;21.056;2022-11-21T11:34:41;14.35;33.62
67354;SHT30;54238;52.278;21.056;2022-11-21T11:37:39;13.44;34.54
67354;SHT30;54238;52.278;21.056;2022-11-21T11:53:47;9.72;41.12
67354;SHT30;54238;52.278;21.056;2022-11-21T11:56:10;9.27;42.03
67354;SHT30;54238;52.278;21.056;2022-11-21T11:58:44;8.92;42.84
67354;SHT30;54238;52.278;21.056;2022-11-21T12:01:22;8.56;43.60
67354;SHT30;54238;52.278;21.056;2022-11-21T12:07:05;7.84;45.25
67354;SHT30;54238;52.278;21.056;2022-11-21T12:12:51;7.19;47.16
67354;SHT30;54238;52.278;21.056;2022-11-21T12:23:50;6.60;49.29
67354;SHT30;54238;52.278;21.056;2022-11-21T12:29:13;7.11;49.57
67354;SHT30;54238;52.278;21.056;2022-11-21T12:44:09;6.73;50.24
67354;SHT30;54238;52.278;21.056;2022-11-21T12:52:55;6.24;51.91
67354;SHT30;54238;52.278;21.056;2022-11-21T12:56:00;6.09;52.52
67354;SHT30;54238;52.278;21.056;2022-11-21T12:58:50;6.03;52.82
67354;SHT30;54238;52.278;21.056;2022-11-21T13:01:30;5.99;53.07
67354;SHT30;54238;52.278;21.056;2022-11-21T13:04:23;5.96;53.30
67354;SHT30;54238;52.278;21.056;2022-11-21T13:06:58;5.98;53.43
67354;SHT30;54238;52.278;21.056;2022-11-21T13:09:34;5.96;53.50
67354;SHT30;54238;52.278;21.056;2022-11-21T13:12:21;5.90;53.74
67354;SHT30;54238;52.278;21.056;2022-11-21T13:15:20;5.77;54.21
67354;SHT30;54238;52.278;21.056;2022-11-21T13:20:54;5.51;54.99
67354;SHT30;54238;52.278;21.056;2022-11-21T13:23:34;5.40;55.41
67354;SHT30;54238;52.278;21.056;2022-11-21T13:29:16;5.22;56.03
67354;SHT30;54238;52.278;21.056;2022-11-21T13:31:45;5.16;56.18
67354;SHT30;54238;52.278;21.056;2022-11-21T13:37:01;5.08;56.57
67354;SHT30;54238;52.278;21.056;2022-11-21T13:39:36;5.04;56.69
67354;SHT30;54238;52.278;21.056;2022-11-21T13:42:09;5.00;56.85
67354;SHT30;54238;52.278;21.056;2022-11-21T13:44:57;4.97;57.03
67354;SHT30;54238;52.278;21.056;2022-11-21T14:09:58;4.59;58.44
67354;SHT30;54238;52.278;21.056;2022-11-21T14:12:36;4.56;58.66
67354;SHT30;54238;52.278;21.056;2022-11-21T14:18:00;4.45;58.99
67354;SHT30;54238;52.278;21.056;2022-11-21T14:23:26;4.34;59.45
67354;SHT30;54238;52.278;21.056;2022-11-21T14:26:02;4.30;59.80
67354;SHT30;54238;52.278;21.056;2022-11-21T14:28:48;4.22;60.07
67354;SHT30;54238;52.278;21.056;2022-11-21T14:31:15;4.15;60.35
67354;SHT30;54238;52.278;21.056;2022-11-21T14:33:46;4.08;60.54
67354;SHT30;54238;52.278;21.056;2022-11-21T14:36:21;4.03;60.76
67354;SHT30;54238;52.278;21.056;2022-11-21T14:38:58;4.01;61.12
67354;SHT30;54238;52.278;21.056;2022-11-21T14:41:31;4.05;61.25
67354;SHT30;54238;52.278;21.056;2022-11-21T14:44:05;4.11;61.11
67354;SHT30;54238;52.278;21.056;2022-11-21T14:46:45;4.20;61.06
67354;SHT30;54238;52.278;21.056;2022-11-21T14:51:50;4.25;61.03
67354;SHT30;54238;52.278;21.056;2022-11-21T14:57:26;4.11;61.38
67354;SHT30;54238;52.278;21.056;2022-11-21T14:59:59;3.98;61.74
67354;SHT30;54238;52.278;21.056;2022-11-21T15:02:33;3.89;61.98
67354;SHT30;54238;52.278;21.056;2022-11-21T15:05:04;3.82;62.31
67354;SHT30;54238;52.278;21.056;2022-11-21T15:07:42;3.74;62.75
67354;SHT30;54238;52.278;21.056;2022-11-21T15:10:15;3.64;63.06
67354;SHT30;54238;52.278;21.056;2022-11-21T15:12:52;3.54;63.38
67354;SHT30;54238;52.278;21.056;2022-11-21T15:18:10;3.42;63.75
67354;SHT30;54238;52.278;21.056;2022-11-21T15:20:50;3.39;64.07
67354;SHT30;54238;52.278;21.056;2022-11-21T15:23:31;3.42;64.26
67354;SHT30;54238;52.278;21.056;2022-11-21T15:26:23;3.51;64.31
67354;SHT30;54238;52.278;21.056;2022-11-21T15:29:01;3.62;64.15
67354;SHT30;54238;52.278;21.056;2022-11-21T15:31:30;3.73;64.09
67354;SHT30;54238;52.278;21.056;2022-11-21T15:33:58;3.85;63.83
67354;SHT30;54238;52.278;21.056;2022-11-21T15:36:31;3.92;63.74
67354;SHT30;54238;52.278;21.056;2022-11-21T15:41:32;3.80;63.92
67354;SHT30;54238;52.278;21.056;2022-11-21T15:46:34;3.61;64.41
67354;SHT30;54238;52.278;21.056;2022-11-21T15:49:08;3.55;64.65
67354;SHT30;54238;52.278;21.056;2022-11-21T15:54:06;3.36;65.25
67354;SHT30;54238;52.278;21.056;2022-11-21T15:56:39;3.32;65.40
67354;SHT30;54238;52.278;21.056;2022-11-21T15:59:07;3.29;65.63
67354;SHT30;54238;52.278;21.056;2022-11-21T16:01:37;3.25;65.82
67354;SHT30;54238;52.278;21.056;2022-11-21T16:04:10;3.29;65.84
67354;SHT30;54238;52.278;21.056;2022-11-21T16:06:39;3.43;65.82
67354;SHT30;54238;52.278;21.056;2022-11-21T16:09:14;3.57;65.58
67354;SHT30;54238;52.278;21.056;2022-11-21T16:11:44;3.71;65.41
67354;SHT30;54238;52.278;21.056;2022-11-21T16:14:16;3.81;65.21
67354;SHT30;54238;52.278;21.056;2022-11-21T16:16:52;3.79;65.12
67354;SHT30;54238;52.278;21.056;2022-11-21T16:19:24;3.72;65.28
67354;SHT30;54238;52.278;21.056;2022-11-21T16:21:51;3.61;65.41
67354;SHT30;54238;52.278;21.056;2022-11-21T16:24:20;3.50;65.74
67354;SHT30;54238;52.278;21.056;2022-11-21T16:26:54;3.39;66.05
67354;SHT30;54238;52.278;21.056;2022-11-21T16:29:27;3.28;66.24
67354;SHT30;54238;52.278;21.056;2022-11-21T16:31:54;3.21;66.62
67354;SHT30;54238;52.278;21.056;2022-11-21T16:34:25;3.12;66.79
67354;SHT30;54238;52.278;21.056;2022-11-21T16:36:58;3.08;67.00
67354;SHT30;54238;52.278;21.056;2022-11-21T16:39:27;3.04;67.19
67354;SHT30;54238;52.278;21.056;2022-11-21T16:41:56;3.07;67.36
67354;SHT30;54238;52.278;21.056;2022-11-21T16:44:28;3.16;67.23
67354;SHT30;54238;52.278;21.056;2022-11-21T16:46:56;3.31;67.03
67354;SHT30;54238;52.278;21.056;2022-11-21T16:49:25;3.46;66.77
67354;SHT30;54238;52.278;21.056;2022-11-21T16:51:52;3.55;66.59
67354;SHT30;54238;52.278;21.056;2022-11-21T16:54:26;3.53;66.57
67354;SHT30;54238;52.278;21.056;2022-11-21T16:56:58;3.51;66.57
67354;SHT30;54238;52.278;21.056;2022-11-21T16:59:29;3.45;66.72
67354;SHT30;54238;52.278;21.056;2022-11-21T17:01:58;3.37;66.87
67354;SHT30;54238;52.278;21.056;2022-11-21T17:04:30;3.29;67.15
67354;SHT30;54238;52.278;21.056;2022-11-21T17:06:57;3.20;67.48
67354;SHT30;54238;52.278;21.056;2022-11-21T17:09:28;3.13;67.70
67354;SHT30;54238;52.278;21.056;2022-11-21T17:11:58;3.08;67.97
67354;SHT30;54238;52.278;21.056;2022-11-21T17:14:30;3.04;68.02
67354;SHT30;54238;52.278;21.056;2022-11-21T17:16:57;3.07;68.21
67354;SHT30;54238;52.278;21.056;2022-11-21T17:19:24;3.17;68.17
67354;SHT30;54238;52.278;21.056;2022-11-21T17:21:53;3.29;67.99
67354;SHT30;54238;52.278;21.056;2022-11-21T17:24:25;3.45;68.01
67354;SHT30;54238;52.278;21.056;2022-11-21T17:26:54;3.55;67.64
67354;SHT30;54238;52.278;21.056;2022-11-21T17:29:29;3.55;67.50
67354;SHT30;54238;52.278;21.056;2022-11-21T17:31:59;3.56;67.49
67354;SHT30;54238;52.278;21.056;2022-11-21T17:34:31;3.52;67.51
67354;SHT30;54238;52.278;21.056;2022-11-21T17:37:00;3.45;67.69
67354;SHT30;54238;52.278;21.056;2022-11-21T17:39:27;3.39;67.79
67354;SHT30;54238;52.278;21.056;2022-11-21T17:41:57;3.31;68.11
67354;SHT30;54238;52.278;21.056;2022-11-21T17:47:21;3.21;68.42
67354;SHT30;54238;52.278;21.056;2022-11-21T17:49:50;3.28;68.43
67354;SHT30;54238;52.278;21.056;2022-11-21T17:52:22;3.44;68.29
67354;SHT30;54238;52.278;21.056;2022-11-21T17:54:49;3.57;68.09
67354;SHT30;54238;52.278;21.056;2022-11-21T17:57:16;3.70;67.89
67354;SHT30;54238;52.278;21.056;2022-11-21T17:59:45;3.72;67.73
67354;SHT30;54238;52.278;21.056;2022-11-21T18:02:12;3.68;67.81
67354;SHT30;54238;52.278;21.056;2022-11-21T18:04:43;3.65;67.91
67354;SHT30;54238;52.278;21.056;2022-11-21T18:07:10;3.58;68.17
67354;SHT30;54238;52.278;21.056;2022-11-21T18:09:42;3.53;68.31
67354;SHT30;54238;52.278;21.056;2022-11-21T18:12:11;3.46;68.50
67354;SHT30;54238;52.278;21.056;2022-11-21T18:14:38;3.41;68.73
67354;SHT30;54238;52.278;21.056;2022-11-21T18:17:07;3.36;68.88
67354;SHT30;54238;52.278;21.056;2022-11-21T18:19:34;3.37;68.97
67354;SHT30;54238;52.278;21.056;2022-11-21T18:22:03;3.44;69.06
67354;SHT30;54238;52.278;21.056;2022-11-21T18:24:30;3.52;68.98
67354;SHT30;54238;52.278;21.056;2022-11-21T18:26:59;3.58;68.86
67354;SHT30;54238;52.278;21.056;2022-11-21T18:29:31;3.68;68.71
67354;SHT30;54238;52.278;21.056;2022-11-21T18:31:58;3.73;68.61
67354;SHT30;54238;52.278;21.056;2022-11-21T18:34:27;3.71;68.59
67354;SHT30;54238;52.278;21.056;2022-11-21T18:36:56;3.66;68.71
67354;SHT30;54238;52.278;21.056;2022-11-21T18:39:31;3.60;68.83
67354;SHT30;54238;52.278;21.056;2022-11-21T18:42:00;3.53;69.10
67354;SHT30;54238;52.278;21.056;2022-11-21T18:44:27;3.47;69.26
67354;SHT30;54238;52.278;21.056;2022-11-21T18:46:56;3.41;69.51